sensor_id;sensor_type;location;lat;lon;timestamp;pressure;altitude;pressure_sealevel;temperature;humidity
36242;BME280;22283;42.748;12.732;2022-11-15T00:04:50;98586.63;;;4.41;100.00
36242;BME280;22283;42.748;12.732;2022-11-15T00:10:09;98589.56;;;4.56;100.00
36242;BME280;22283;42.748;12.732;2022-11-15T00:15:29;98591.50;;;4.51;100.00
36242;BME280;22283;42.748;12.732;2022-11-15T00:20:48;98595.53;;;4.37;100.00
36242;BME280;22283;42.748;12.732;2022-11-15T00:26:11;98598.34;;;4.33;100.00
36242;BME280;22283;42.748;12.732;2022-11-15T00:31:31;98594.06;;;4.30;100.00
36242;BME280;22283;42.748;12.732;2022-11-15T00:36:50;98595.53;;;4.37;100.00
36242;BME280;22283;42.748;12.732;2022-11-15T00:42:09;98581.16;;;4.48;100.00
36242;BME280;22283;42.748;12.732;2022-11-15T00:47:28;98590.75;;;4.47;100.00
36242;BME280;22283;42.748;12.732;2022-11-15T00:52:47;98592.69;;;4.43;100.00
36242;BME280;22283;42.748;12.732;2022-11-15T00:58:07;98595.16;;;4.47;100.00
36242;BME280;22283;42.748;12.732;2022-11-15T01:03:26;98581.63;;;4.35;100.00
36242;BME280;22283;42.748;12.732;2022-11-15T01:08:45;98579.22;;;4.31;100.00
36242;BME280;22283;42.748;12.732;2022-11-15T01:14:04;98584.13;;;4.38;100.00
36242;BME280;22283;42.748;12.732;2022-11-15T01:19:24;98573.50;;;4.21;100.00
36242;BME280;22283;42.748;12.732;2022-11-15T01:24:43;98574.03;;;4.07;100.00
36242;BME280;22283;42.748;12.732;2022-11-15T01:30:03;98567.00;;;4.09;100.00
36242;BME280;22283;42.748;12.732;2022-11-15T01:35:23;98565.34;;;4.07;100.00
36242;BME280;22283;42.748;12.732;2022-11-15T01:40:42;98576.34;;;4.15;100.00
36242;BME280;22283;42.748;12.732;2022-11-15T01:46:18;98557.78;;;4.21;100.00
36242;BME280;22283;42.748;12.732;2022-11-15T01:51:40;98565.09;;;4.13;100.00
36242;BME280;22283;42.748;12.732;2022-11-15T01:57:06;98544.50;;;4.04;100.00
36242;BME280;22283;42.748;12.732;2022-11-15T02:02:27;98540.38;;;3.98;100.00
36242;BME280;22283;42.748;12.732;2022-11-15T02:07:47;98534.22;;;4.21;100.00
36242;BME280;22283;42.748;12.732;2022-11-15T02:13:07;98540.00;;;4.29;100.00
36242;BME280;22283;42.748;12.732;2022-11-15T02:18:35;98545.88;;;4.34;100.00
36242;BME280;22283;42.748;12.732;2022-11-15T02:35:15;98534.28;;;3.98;100.00
36242;BME280;22283;42.748;12.732;2022-11-15T02:46:42;98542.22;;;3.51;100.00
36242;BME280;22283;42.748;12.732;2022-11-15T02:52:23;98547.84;;;3.40;100.00
36242;BME280;22283;42.748;12.732;2022-11-15T03:03:40;98536.44;;;3.42;100.00
36242;BME280;22283;42.748;12.732;2022-11-15T03:14:40;98529.88;;;3.54;100.00
36242;BME280;22283;42.748;12.732;2022-11-15T03:20:04;98528.19;;;3.53;100.00
36242;BME280;22283;42.748;12.732;2022-11-15T03:25:26;98527.38;;;3.51;100.00
36242;BME280;22283;42.748;12.732;2022-11-15T03:30:49;98525.13;;;3.64;100.00
36242;BME280;22283;42.748;12.732;2022-11-15T03:36:11;98531.94;;;3.46;100.00
36242;BME280;22283;42.748;12.732;2022-11-15T03:41:56;98544.69;;;3.32;100.00
36242;BME280;22283;42.748;12.732;2022-11-15T03:47:41;98548.25;;;3.06;100.00
36242;BME280;22283;42.748;12.732;2022-11-15T03:53:03;98537.91;;;3.03;100.00
36242;BME280;22283;42.748;12.732;2022-11-15T03:58:22;98519.78;;;2.98;100.00
36242;BME280;22283;42.748;12.732;2022-11-15T04:03:41;98532.88;;;2.96;100.00
36242;BME280;22283;42.748;12.732;2022-11-15T04:09:00;98516.34;;;2.96;100.00
36242;BME280;22283;42.748;12.732;2022-11-15T04:14:20;98510.06;;;3.02;100.00
36242;BME280;22283;42.748;12.732;2022-11-15T04:19:39;98494.59;;;2.95;100.00
36242;BME280;22283;42.748;12.732;2022-11-15T04:25:22;98503.47;;;2.91;100.00
36242;BME280;22283;42.748;12.732;2022-11-15T04:30:41;98500.63;;;2.98;100.00
36242;BME280;22283;42.748;12.732;2022-11-15T04:36:00;98511.19;;;2.94;100.00
36242;BME280;22283;42.748;12.732;2022-11-15T04:41:38;98503.56;;;2.88;100.00
36242;BME280;22283;42.748;12.732;2022-11-15T04:46:57;98494.94;;;2.86;100.00
36242;BME280;22283;42.748;12.732;2022-11-15T04:52:17;98492.91;;;2.94;100.00
36242;BME280;22283;42.748;12.732;2022-11-15T04:57:37;98484.03;;;2.99;100.00
36242;BME280;22283;42.748;12.732;2022-11-15T05:02:57;98483.94;;;3.02;100.00
36242;BME280;22283;42.748;12.732;2022-11-15T05:08:35;98482.66;;;2.88;100.00
36242;BME280;22283;42.748;12.732;2022-11-15T05:13:54;98484.81;;;2.77;100.00
36242;BME280;22283;42.748;12.732;2022-11-15T05:19:13;98481.84;;;2.63;100.00
36242;BME280;22283;42.748;12.732;2022-11-15T05:24:32;98488.69;;;2.42;100.00
36242;BME280;22283;42.748;12.732;2022-11-15T05:29:51;98511.28;;;2.43;100.00
36242;BME280;22283;42.748;12.732;2022-11-15T05:35:33;98514.47;;;2.26;100.00
36242;BME280;22283;42.748;12.732;2022-11-15T05:40:54;98504.53;;;2.11;100.00
36242;BME280;22283;42.748;12.732;2022-11-15T05:46:13;98510.94;;;2.01;100.00
36242;BME280;22283;42.748;12.732;2022-11-15T05:51:32;98502.50;;;2.19;100.00
36242;BME280;22283;42.748;12.732;2022-11-15T05:56:53;98509.13;;;2.29;100.00
36242;BME280;22283;42.748;12.732;2022-11-15T06:02:14;98489.72;;;2.36;100.00
36242;BME280;22283;42.748;12.732;2022-11-15T06:07:33;98469.44;;;2.44;100.00
36242;BME280;22283;42.748;12.732;2022-11-15T06:13:03;98442.44;;;2.45;100.00
36242;BME280;22283;42.748;12.732;2022-11-15T06:18:23;98476.56;;;2.39;100.00
36242;BME280;22283;42.748;12.732;2022-11-15T06:23:42;98496.78;;;2.34;100.00
36242;BME280;22283;42.748;12.732;2022-11-15T06:29:04;98497.28;;;2.45;100.00
36242;BME280;22283;42.748;12.732;2022-11-15T06:34:24;98499.75;;;2.74;100.00
36242;BME280;22283;42.748;12.732;2022-11-15T06:39:43;98501.22;;;3.29;100.00
36242;BME280;22283;42.748;12.732;2022-11-15T06:45:02;98525.22;;;3.84;100.00
36242;BME280;22283;42.748;12.732;2022-11-15T06:50:22;98527.94;;;4.25;100.00
36242;BME280;22283;42.748;12.732;2022-11-15T06:55:41;98526.38;;;4.41;100.00
36242;BME280;22283;42.748;12.732;2022-11-15T07:01:07;98521.56;;;4.31;100.00
36242;BME280;22283;42.748;12.732;2022-11-15T07:06:27;98513.53;;;4.35;100.00
36242;BME280;22283;42.748;12.732;2022-11-15T07:11:46;98509.22;;;4.55;100.00
36242;BME280;22283;42.748;12.732;2022-11-15T07:17:06;98516.81;;;4.81;100.00
36242;BME280;22283;42.748;12.732;2022-11-15T07:22:24;98492.75;;;4.92;100.00
36242;BME280;22283;42.748;12.732;2022-11-15T07:27:44;98503.63;;;4.83;100.00
36242;BME280;22283;42.748;12.732;2022-11-15T07:33:12;98516.75;;;4.62;100.00
36242;BME280;22283;42.748;12.732;2022-11-15T07:38:31;98515.44;;;4.73;100.00
36242;BME280;22283;42.748;12.732;2022-11-15T07:43:51;98504.81;;;4.96;100.00
36242;BME280;22283;42.748;12.732;2022-11-15T07:49:11;98524.25;;;5.30;100.00
36242;BME280;22283;42.748;12.732;2022-11-15T07:54:30;98509.72;;;5.41;100.00
36242;BME280;22283;42.748;12.732;2022-11-15T07:59:49;98515.19;;;5.56;100.00
36242;BME280;22283;42.748;12.732;2022-11-15T08:05:08;98510.94;;;5.72;100.00
36242;BME280;22283;42.748;12.732;2022-11-15T08:10:28;98509.38;;;5.68;100.00
36242;BME280;22283;42.748;12.732;2022-11-15T08:15:47;98502.25;;;5.70;100.00
36242;BME280;22283;42.748;12.732;2022-11-15T08:21:09;98501.97;;;5.76;100.00
36242;BME280;22283;42.748;12.732;2022-11-15T08:26:28;98492.28;;;5.78;100.00
36242;BME280;22283;42.748;12.732;2022-11-15T08:31:49;98500.44;;;5.89;100.00
36242;BME280;22283;42.748;12.732;2022-11-15T08:37:08;98503.06;;;6.08;100.00
36242;BME280;22283;42.748;12.732;2022-11-15T08:42:27;98487.41;;;6.24;100.00
36242;BME280;22283;42.748;12.732;2022-11-15T08:47:46;98503.19;;;6.24;100.00
36242;BME280;22283;42.748;12.732;2022-11-15T08:53:09;98490.50;;;6.32;100.00
36242;BME280;22283;42.748;12.732;2022-11-15T08:58:29;98479.38;;;6.45;100.00
36242;BME280;22283;42.748;12.732;2022-11-15T09:03:48;98482.00;;;6.62;100.00
36242;BME280;22283;42.748;12.732;2022-11-15T09:09:07;98478.16;;;6.85;100.00
36242;BME280;22283;42.748;12.732;2022-11-15T09:14:26;98475.50;;;7.02;100.00
36242;BME280;22283;42.748;12.732;2022-11-15T09:19:46;98468.38;;;7.20;100.00
36242;BME280;22283;42.748;12.732;2022-11-15T09:25:06;98460.03;;;7.45;100.00
36242;BME280;22283;42.748;12.732;2022-11-15T09:30:25;98461.97;;;7.57;100.00
36242;BME280;22283;42.748;12.732;2022-11-15T09:35:45;98451.75;;;7.67;100.00
36242;BME280;22283;42.748;12.732;2022-11-15T09:51:54;98430.63;;;7.99;100.00
36242;BME280;22283;42.748;12.732;2022-11-15T09:57:09;98425.78;;;8.07;100.00
36242;BME280;22283;42.748;12.732;2022-11-15T10:02:40;98422.81;;;8.27;100.00
36242;BME280;22283;42.748;12.732;2022-11-15T10:13:12;98407.44;;;8.50;100.00
36242;BME280;22283;42.748;12.732;2022-11-15T10:18:20;98396.81;;;8.66;100.00
36242;BME280;22283;42.748;12.732;2022-11-15T10:23:29;98384.28;;;8.55;100.00
36242;BME280;22283;42.748;12.732;2022-11-15T10:28:30;98373.16;;;8.50;100.00
36242;BME280;22283;42.748;12.732;2022-11-15T10:33:36;98369.41;;;8.40;100.00
36242;BME280;22283;42.748;12.732;2022-11-15T10:44:08;98345.13;;;8.49;100.00
36242;BME280;22283;42.748;12.732;2022-11-15T10:59:30;98321.75;;;8.71;100.00
36242;BME280;22283;42.748;12.732;2022-11-15T11:04:49;98318.16;;;9.14;100.00
36242;BME280;22283;42.748;12.732;2022-11-15T11:10:18;98299.81;;;9.39;100.00
36242;BME280;22283;42.748;12.732;2022-11-15T11:15:20;98279.72;;;9.76;100.00
36242;BME280;22283;42.748;12.732;2022-11-15T11:20:51;98265.91;;;10.37;100.00
36242;BME280;22283;42.748;12.732;2022-11-15T11:52:18;98224.28;;;11.12;100.00
36242;BME280;22283;42.748;12.732;2022-11-15T11:57:43;98214.22;;;11.17;100.00
36242;BME280;22283;42.748;12.732;2022-11-15T12:02:50;98215.34;;;11.02;100.00
36242;BME280;22283;42.748;12.732;2022-11-15T12:08:03;98213.41;;;10.80;100.00
36242;BME280;22283;42.748;12.732;2022-11-15T12:13:10;98203.63;;;10.69;100.00
36242;BME280;22283;42.748;12.732;2022-11-15T12:18:15;98194.22;;;10.65;100.00
36242;BME280;22283;42.748;12.732;2022-11-15T12:23:28;98205.38;;;10.45;100.00
36242;BME280;22283;42.748;12.732;2022-11-15T12:29:25;98198.44;;;10.31;100.00
36242;BME280;22283;42.748;12.732;2022-11-15T12:39:20;98189.50;;;10.45;100.00
36242;BME280;22283;42.748;12.732;2022-11-15T12:49:43;98175.16;;;10.60;100.00
36242;BME280;22283;42.748;12.732;2022-11-15T12:54:57;98174.19;;;10.61;100.00
36242;BME280;22283;42.748;12.732;2022-11-15T13:10:44;98152.22;;;10.11;100.00
36242;BME280;22283;42.748;12.732;2022-11-15T13:15:53;98156.03;;;10.07;100.00
36242;BME280;22283;42.748;12.732;2022-11-15T13:20:57;98149.19;;;9.92;100.00
36242;BME280;22283;42.748;12.732;2022-11-15T13:26:13;98143.91;;;9.66;100.00
36242;BME280;22283;42.748;12.732;2022-11-15T13:31:19;98141.38;;;9.39;100.00
36242;BME280;22283;42.748;12.732;2022-11-15T13:36:24;98137.00;;;9.25;100.00
36242;BME280;22283;42.748;12.732;2022-11-15T13:41:28;98138.50;;;9.29;100.00
36242;BME280;22283;42.748;12.732;2022-11-15T13:46:33;98125.84;;;9.34;100.00
36242;BME280;22283;42.748;12.732;2022-11-15T13:56:45;98121.69;;;9.30;100.00
36242;BME280;22283;42.748;12.732;2022-11-15T14:01:48;98117.94;;;9.34;100.00
36242;BME280;22283;42.748;12.732;2022-11-15T14:06:53;98095.41;;;9.42;100.00
36242;BME280;22283;42.748;12.732;2022-11-15T14:11:56;98100.59;;;9.56;100.00
36242;BME280;22283;42.748;12.732;2022-11-15T14:16:59;98092.97;;;9.64;100.00
36242;BME280;22283;42.748;12.732;2022-11-15T14:32:26;98065.50;;;9.54;100.00
36242;BME280;22283;42.748;12.732;2022-11-15T14:37:32;98062.44;;;9.60;100.00
36242;BME280;22283;42.748;12.732;2022-11-15T14:42:35;98059.59;;;9.63;100.00
36242;BME280;22283;42.748;12.732;2022-11-15T14:47:35;98045.44;;;9.64;100.00
36242;BME280;22283;42.748;12.732;2022-11-15T14:52:36;98033.59;;;9.57;100.00
36242;BME280;22283;42.748;12.732;2022-11-15T14:57:37;98039.22;;;9.40;100.00
36242;BME280;22283;42.748;12.732;2022-11-15T15:02:38;98036.38;;;9.30;100.00
36242;BME280;22283;42.748;12.732;2022-11-15T15:07:39;98040.81;;;9.29;100.00
36242;BME280;22283;42.748;12.732;2022-11-15T15:12:40;98030.47;;;9.14;100.00
36242;BME280;22283;42.748;12.732;2022-11-15T15:17:41;98017.91;;;9.04;100.00
36242;BME280;22283;42.748;12.732;2022-11-15T15:22:41;98011.59;;;9.07;100.00
36242;BME280;22283;42.748;12.732;2022-11-15T15:27:42;98002.91;;;9.18;100.00
36242;BME280;22283;42.748;12.732;2022-11-15T15:32:43;98011.25;;;9.24;100.00
36242;BME280;22283;42.748;12.732;2022-11-15T15:37:45;98002.16;;;9.28;100.00
36242;BME280;22283;42.748;12.732;2022-11-15T15:42:49;98003.75;;;9.31;100.00
36242;BME280;22283;42.748;12.732;2022-11-15T15:47:50;97980.09;;;9.29;100.00
36242;BME280;22283;42.748;12.732;2022-11-15T15:52:54;97989.69;;;9.30;100.00
36242;BME280;22283;42.748;12.732;2022-11-15T15:57:56;97982.72;;;9.29;100.00
36242;BME280;22283;42.748;12.732;2022-11-15T16:02:57;97970.28;;;9.31;100.00
36242;BME280;22283;42.748;12.732;2022-11-15T16:07:58;97962.88;;;9.36;100.00
36242;BME280;22283;42.748;12.732;2022-11-15T16:12:59;97949.53;;;9.38;100.00
36242;BME280;22283;42.748;12.732;2022-11-15T16:18:01;97951.25;;;9.39;100.00
36242;BME280;22283;42.748;12.732;2022-11-15T16:23:03;97946.06;;;9.38;100.00
36242;BME280;22283;42.748;12.732;2022-11-15T16:28:04;97945.44;;;9.34;100.00
36242;BME280;22283;42.748;12.732;2022-11-15T16:33:04;97947.16;;;9.22;100.00
36242;BME280;22283;42.748;12.732;2022-11-15T16:38:05;97948.63;;;9.26;100.00
36242;BME280;22283;42.748;12.732;2022-11-15T16:43:07;97948.41;;;9.29;100.00
36242;BME280;22283;42.748;12.732;2022-11-15T16:48:20;97941.53;;;9.40;100.00
36242;BME280;22283;42.748;12.732;2022-11-15T16:53:21;97941.28;;;9.55;100.00
36242;BME280;22283;42.748;12.732;2022-11-15T16:58:23;97930.72;;;9.55;100.00
36242;BME280;22283;42.748;12.732;2022-11-15T17:03:24;97927.19;;;9.68;100.00
36242;BME280;22283;42.748;12.732;2022-11-15T17:08:25;97927.19;;;9.92;100.00
36242;BME280;22283;42.748;12.732;2022-11-15T17:13:27;97931.34;;;10.07;100.00
36242;BME280;22283;42.748;12.732;2022-11-15T17:18:29;97918.22;;;10.05;100.00
36242;BME280;22283;42.748;12.732;2022-11-15T17:23:31;97903.47;;;10.03;100.00
36242;BME280;22283;42.748;12.732;2022-11-15T17:28:33;97898.53;;;9.98;100.00
36242;BME280;22283;42.748;12.732;2022-11-15T17:33:34;97910.03;;;9.97;100.00
36242;BME280;22283;42.748;12.732;2022-11-15T17:38:35;97890.13;;;10.40;100.00
36242;BME280;22283;42.748;12.732;2022-11-15T17:43:36;97907.72;;;10.63;100.00
36242;BME280;22283;42.748;12.732;2022-11-15T17:48:37;97917.00;;;10.80;100.00
36242;BME280;22283;42.748;12.732;2022-11-15T17:53:40;97889.25;;;10.97;100.00
36242;BME280;22283;42.748;12.732;2022-11-15T17:58:45;97885.72;;;11.07;100.00
36242;BME280;22283;42.748;12.732;2022-11-15T18:03:47;97874.06;;;11.10;100.00
36242;BME280;22283;42.748;12.732;2022-11-15T18:08:49;97868.28;;;11.16;100.00
36242;BME280;22283;42.748;12.732;2022-11-15T18:13:53;97868.28;;;11.16;100.00
36242;BME280;22283;42.748;12.732;2022-11-15T18:18:54;97864.19;;;11.23;100.00
36242;BME280;22283;42.748;12.732;2022-11-15T18:23:56;97874.75;;;11.35;100.00
36242;BME280;22283;42.748;12.732;2022-11-15T18:29:02;97870.66;;;11.42;100.00
36242;BME280;22283;42.748;12.732;2022-11-15T18:34:03;97857.25;;;11.54;100.00
36242;BME280;22283;42.748;12.732;2022-11-15T18:39:04;97849.94;;;11.47;100.00
36242;BME280;22283;42.748;12.732;2022-11-15T18:44:05;97835.16;;;11.33;100.00
36242;BME280;22283;42.748;12.732;2022-11-15T18:49:08;97829.97;;;11.31;100.00
36242;BME280;22283;42.748;12.732;2022-11-15T18:54:10;97830.47;;;11.25;100.00
36242;BME280;22283;42.748;12.732;2022-11-15T18:59:12;97815.88;;;11.42;100.00
36242;BME280;22283;42.748;12.732;2022-11-15T19:04:15;97823.19;;;11.50;100.00
36242;BME280;22283;42.748;12.732;2022-11-15T19:09:18;97811.75;;;11.49;100.00
36242;BME280;22283;42.748;12.732;2022-11-15T19:14:19;97822.59;;;11.46;100.00
36242;BME280;22283;42.748;12.732;2022-11-15T19:19:24;97820.16;;;11.54;100.00
36242;BME280;22283;42.748;12.732;2022-11-15T19:24:27;97810.63;;;11.52;100.00
36242;BME280;22283;42.748;12.732;2022-11-15T19:29:29;97813.53;;;11.60;100.00
36242;BME280;22283;42.748;12.732;2022-11-15T19:34:29;97804.19;;;11.45;100.00
36242;BME280;22283;42.748;12.732;2022-11-15T19:39:30;97799.72;;;11.45;100.00
36242;BME280;22283;42.748;12.732;2022-11-15T19:44:30;97795.16;;;11.36;100.00
36242;BME280;22283;42.748;12.732;2022-11-15T19:49:32;97787.19;;;11.47;100.00
36242;BME280;22283;42.748;12.732;2022-11-15T19:54:33;97774.84;;;11.37;100.00
36242;BME280;22283;42.748;12.732;2022-11-15T19:59:34;97779.88;;;11.40;100.00
36242;BME280;22283;42.748;12.732;2022-11-15T20:04:34;97756.75;;;11.42;100.00
36242;BME280;22283;42.748;12.732;2022-11-15T20:09:35;97781.56;;;11.41;100.00
36242;BME280;22283;42.748;12.732;2022-11-15T20:14:37;97779.72;;;11.52;100.00
36242;BME280;22283;42.748;12.732;2022-11-15T20:19:39;97775.31;;;11.63;100.00
36242;BME280;22283;42.748;12.732;2022-11-15T20:24:40;97765.06;;;11.69;100.00
36242;BME280;22283;42.748;12.732;2022-11-15T20:29:41;97769.78;;;11.66;100.00
36242;BME280;22283;42.748;12.732;2022-11-15T20:34:42;97768.84;;;11.55;100.00
36242;BME280;22283;42.748;12.732;2022-11-15T20:39:42;97761.69;;;11.67;100.00
36242;BME280;22283;42.748;12.732;2022-11-15T20:44:43;97758.19;;;11.67;100.00
36242;BME280;22283;42.748;12.732;2022-11-15T20:49:44;97765.31;;;11.66;100.00
36242;BME280;22283;42.748;12.732;2022-11-15T20:54:44;97757.06;;;11.80;100.00
36242;BME280;22283;42.748;12.732;2022-11-15T20:59:45;97759.56;;;11.82;100.00
36242;BME280;22283;42.748;12.732;2022-11-15T21:04:46;97741.16;;;11.80;100.00
36242;BME280;22283;42.748;12.732;2022-11-15T21:09:47;97731.19;;;11.84;100.00
36242;BME280;22283;42.748;12.732;2022-11-15T21:15:07;97725.59;;;11.87;100.00
36242;BME280;22283;42.748;12.732;2022-11-15T21:20:08;97732.44;;;11.90;100.00
36242;BME280;22283;42.748;12.732;2022-11-15T21:25:10;97715.13;;;11.86;100.00
36242;BME280;22283;42.748;12.732;2022-11-15T21:30:12;97713.75;;;11.91;100.00
36242;BME280;22283;42.748;12.732;2022-11-15T21:35:13;97685.44;;;11.92;100.00
36242;BME280;22283;42.748;12.732;2022-11-15T21:40:14;97671.41;;;12.01;100.00
36242;BME280;22283;42.748;12.732;2022-11-15T21:45:14;97649.75;;;11.96;100.00
36242;BME280;22283;42.748;12.732;2022-11-15T21:50:15;97670.41;;;12.02;100.00
36242;BME280;22283;42.748;12.732;2022-11-15T21:55:16;97658.84;;;12.03;100.00
36242;BME280;22283;42.748;12.732;2022-11-15T22:00:17;97655.06;;;11.96;100.00
36242;BME280;22283;42.748;12.732;2022-11-15T22:05:36;97675.03;;;12.00;100.00
36242;BME280;22283;42.748;12.732;2022-11-15T22:10:37;97655.94;;;12.06;100.00
36242;BME280;22283;42.748;12.732;2022-11-15T22:15:39;97641.31;;;12.12;100.00
36242;BME280;22283;42.748;12.732;2022-11-15T22:20:40;97635.28;;;12.10;100.00
36242;BME280;22283;42.748;12.732;2022-11-15T22:25:41;97638.34;;;12.05;100.00
36242;BME280;22283;42.748;12.732;2022-11-15T22:30:46;97635.16;;;12.11;100.00
36242;BME280;22283;42.748;12.732;2022-11-15T22:35:48;97643.00;;;12.22;100.00
36242;BME280;22283;42.748;12.732;2022-11-15T22:40:49;97626.94;;;12.14;100.00
36242;BME280;22283;42.748;12.732;2022-11-15T22:45:57;97623.28;;;12.15;100.00
36242;BME280;22283;42.748;12.732;2022-11-15T22:50:58;97625.53;;;12.10;100.00
36242;BME280;22283;42.748;12.732;2022-11-15T22:56:01;97616.88;;;12.08;100.00
36242;BME280;22283;42.748;12.732;2022-11-15T23:01:03;97609.00;;;11.97;100.00
36242;BME280;22283;42.748;12.732;2022-11-15T23:06:05;97615.41;;;11.94;100.00
36242;BME280;22283;42.748;12.732;2022-11-15T23:11:09;97600.16;;;11.87;100.00
36242;BME280;22283;42.748;12.732;2022-11-15T23:16:28;97589.38;;;11.78;100.00
36242;BME280;22283;42.748;12.732;2022-11-15T23:21:37;97572.88;;;11.75;100.00
36242;BME280;22283;42.748;12.732;2022-11-15T23:27:05;97566.50;;;11.77;100.00
36242;BME280;22283;42.748;12.732;2022-11-15T23:32:07;97548.78;;;11.78;100.00
36242;BME280;22283;42.748;12.732;2022-11-15T23:37:27;97538.03;;;11.79;100.00
36242;BME280;22283;42.748;12.732;2022-11-15T23:42:27;97541.75;;;11.88;100.00
36242;BME280;22283;42.748;12.732;2022-11-15T23:47:28;97548.81;;;11.88;100.00
36242;BME280;22283;42.748;12.732;2022-11-15T23:52:29;97519.66;;;11.88;100.00
36242;BME280;22283;42.748;12.732;2022-11-15T23:57:29;97498.47;;;11.88;100.00
